KHYS

Hays Regional Airport

Hays, Kansas, USA
METAR KHYS 171456Z AUTO 18003KT 10SM CLR 00/M03 A3027 RMK AO2 SLP267 T00001033 53002 FZRANO
Observed Flight Rules
Dec-17 @ 14:56 UTC (23 minutes ago) Visual Flight Rules
Wind Visibility Clouds
180° at 3 knots 10 miles
  • Clear skies
Temperatures Readings
Current 0°C / 32°F
Dewpoint -3°C / 27°F
Humidity 80%
Altimeter 30.27" Hg
Pressure 1026.7 hPa
Elevation 609
METAR KHYS 171456Z AUTO 18003KT 10SM CLR 00/M03 A3027 RMK AO2 SLP267 T00001033 53002 FZRANO
Observed Flight Rules
Dec-17 @ 14:56 UTC
(23 minutes ago)
VFR
Wind Visibility
180° at 3 knots 10 miles
Clouds
  • Clear skies
Temperature Dewpoint
0°C / 32°F -3°C / 27°F
Humidity Altimeter Pressure
80% 30.27" Hg 1026.7 hPa